Terminal Aerodrome Forecast
Issued by NWS Caribou, ME

Home | Current Version | Previous Version | Text Only | Print | Product List | Glossary On
Versions: 1 2 3 4 5 6 7 8 9 10 11 12 13 14 15 16 17 18 19 20 21 22 23 24
000
FTUS41 KCAR 231400 AAA
TAFBGR
TAF AMD
KBGR 231452Z 2315/2412 28009G15KT P6SM FEW250
     FM231700 27009KT P6SM SCT050
     FM232300 28006KT P6SM SCT250
     FM240400 34005KT P6SM FEW250=

USA.gov is the U.S. government's official web portal to all federal, state and local government web resources and services.